Os — LHFA — position and weather

sailwx.info

Track history (hours):
 
Tides and Currents Weather Stations Pressure Air Temp Water Temp Dewpoint Dewpoint Depression Visibility Wind Speed Wind Dir Waves Ship Positions

Os

Last reported at 2017-Nov-23 02:00 UTC. Time now 2017-Nov-23 02:03 UTC.
Position N 62°37' E 006°13'.

Length 64 m; draft 3.3 m.

Type: Passenger vessel. MMSI: 257066700.

Date/timePositionNaut miles runAvg speedWind from/ knotsBaromVisibWave heightAir tempDewpointWater temp
2017-Nov-23 02:00N 62°37' E 006°13'0 0.0
2017-Nov-23 01:30N 62°37' E 006°13'0 0.0
2017-Nov-23 01:00N 62°37' E 006°13'0 0.0
2017-Nov-23 00:30N 62°37' E 006°13'0 0.0
2017-Nov-23 00:00N 62°37' E 006°13'0 0.0
2017-Nov-22 23:30N 62°37' E 006°13'0 0.0
2017-Nov-22 23:00N 62°37' E 006°13'2 3.2
2017-Nov-22 22:30N 62°37' E 006°17'2 3.3
2017-Nov-22 22:00N 62°37' E 006°13'2 3.3
2017-Nov-22 21:30N 62°37' E 006°17'2 3.3
2017-Nov-22 20:59N 62°37' E 006°13'2 3.4
2017-Nov-22 20:30N 62°37' E 006°17'2 3.3
2017-Nov-22 20:00N 62°37' E 006°13'2 3.3
2017-Nov-22 19:30N 62°37' E 006°17'  
2017-Nov-18 15:38N 62°26' E 006°21'0 0.0
2017-Nov-18 15:30N 62°26' E 006°21'3 6.3
2017-Nov-18 15:00N 62°27' E 006°14'3 5.2
2017-Nov-18 14:30N 62°26' E 006°19'1 1.1
2017-Nov-18 14:00N 62°26' E 006°21'0 0.0
2017-Nov-18 13:30N 62°26' E 006°21'0 0.0
2017-Nov-18 13:00N 62°26' E 006°21'0 0.0
2017-Nov-18 12:30N 62°26' E 006°21'0 0.0
2017-Nov-18 12:00N 62°26' E 006°21'0 0.0
2017-Nov-18 11:30N 62°26' E 006°21'0 0.0
2017-Nov-18 11:00N 62°26' E 006°21'0 0.0
2017-Nov-18 10:31N 62°26' E 006°21'0 0.0
2017-Nov-18 09:59N 62°26' E 006°21'0 0.0
2017-Nov-18 09:31N 62°26' E 006°21'0 0.0
2017-Nov-18 09:00N 62°26' E 006°21'0 0.0
2017-Nov-18 08:30N 62°26' E 006°21'0 0.0
2017-Nov-18 08:00N 62°26' E 006°21'0 0.0
2017-Nov-18 07:30N 62°26' E 006°21'0 0.0
2017-Nov-18 07:00N 62°26' E 006°21'0 0.0
2017-Nov-18 06:30N 62°26' E 006°21'0 0.0
2017-Nov-18 06:00N 62°26' E 006°21'0 0.0
2017-Nov-18 05:30N 62°26' E 006°21'0 0.0
2017-Nov-18 05:00N 62°26' E 006°21'0 0.0
2017-Nov-18 04:30N 62°26' E 006°21'0 0.0
2017-Nov-18 04:00N 62°26' E 006°21'0 0.0
2017-Nov-18 03:30N 62°26' E 006°21'0 0.0
2017-Nov-18 03:00N 62°26' E 006°21'0 0.0
2017-Nov-18 02:30N 62°26' E 006°21'0 0.0
2017-Nov-18 02:01N 62°26' E 006°21'0 0.0
2017-Nov-18 01:30N 62°26' E 006°21'0 0.0
2017-Nov-18 01:00N 62°26' E 006°21'0 0.0
2017-Nov-18 00:30N 62°26' E 006°21'0 0.0
2017-Nov-18 00:00N 62°26' E 006°21'0 0.0
2017-Nov-17 23:30N 62°26' E 006°21'0 0.0
2017-Nov-17 23:00N 62°26' E 006°21'0 0.0
2017-Nov-17 22:30N 62°26' E 006°21'0 0.0
2017-Nov-17 22:00N 62°26' E 006°21'0 0.0
2017-Nov-17 21:30N 62°26' E 006°21'0 0.0
2017-Nov-17 21:00N 62°26' E 006°21'0 0.0
2017-Nov-17 20:30N 62°26' E 006°21'0 0.0
2017-Nov-17 20:00N 62°26' E 006°21'0 0.0
2017-Nov-17 19:30N 62°26' E 006°21'0 0.0
2017-Nov-17 19:00N 62°26' E 006°21'0 0.0
2017-Nov-17 18:30N 62°26' E 006°21'0 0.0
2017-Nov-17 18:00N 62°26' E 006°21'0 0.0
2017-Nov-17 17:30N 62°26' E 006°21'0 0.0
2017-Nov-17 17:00N 62°26' E 006°21'  
2017-Nov-14 14:25N 62°26' E 006°21'2 4.2
2017-Nov-14 14:00N 62°27' E 006°17'510.9
2017-Nov-14 13:30N 62°27' E 006°05'5 9.1
2017-Nov-14 13:01N 62°31' E 006°09'510.1
2017-Nov-14 12:30N 62°35' E 006°15'5 9.1
2017-Nov-14 12:00N 62°37' E 006°25'2 3.3
2017-Nov-14 11:30N 62°36' E 006°27'0 0.0
2017-Nov-14 11:00N 62°36' E 006°27'0 0.0
2017-Nov-14 10:30N 62°36' E 006°27'0 0.0
2017-Nov-14 10:00N 62°36' E 006°27'0 0.0
2017-Nov-14 09:30N 62°36' E 006°27'0 0.0
2017-Nov-14 09:01N 62°36' E 006°27'0 0.0
2017-Nov-14 08:30N 62°36' E 006°27'0 0.0
2017-Nov-14 08:01N 62°36' E 006°27'0 0.0
2017-Nov-14 07:30N 62°36' E 006°27'2 3.5
2017-Nov-14 07:01N 62°37' E 006°25'510.3
2017-Nov-14 06:30N 62°37' E 006°13'0 0.0
2017-Nov-14 06:00N 62°37' E 006°13'1 2.7
2017-Nov-14 05:30N 62°36' E 006°16'1 2.5
2017-Nov-14 05:00N 62°37' E 006°14'2 3.2
2017-Nov-14 04:30N 62°37' E 006°17'1 2.6
2017-Nov-14 04:00N 62°38' E 006°17'2 4.0
2017-Nov-14 03:30N 62°37' E 006°13'0 0.0
2017-Nov-14 03:00N 62°37' E 006°13'0 0.0
2017-Nov-14 02:30N 62°37' E 006°13'0 0.0
2017-Nov-14 02:00N 62°37' E 006°13'0 0.0
2017-Nov-14 01:30N 62°37' E 006°13'0 0.0
2017-Nov-14 01:00N 62°37' E 006°13'0 0.0
2017-Nov-14 00:30N 62°37' E 006°13'0 0.0
2017-Nov-14 00:00N 62°37' E 006°13'0 0.0
2017-Nov-13 23:30N 62°37' E 006°13'0 0.0
2017-Nov-13 23:00N 62°37' E 006°13'1 1.5
2017-Nov-13 22:30N 62°37' E 006°15'1 1.5
2017-Nov-13 21:59N 62°37' E 006°13'  
Track history (hours):
 
Tides and Currents Weather Stations Pressure Air Temp Water Temp Dewpoint Dewpoint Depression Visibility Wind Speed Wind Dir Waves Ship Positions

Os

Last reported at 2017-Nov-23 02:00 UTC. Time now 2017-Nov-23 02:03 UTC.
Position N 62°37' E 006°13'.

Length 64 m; draft 3.3 m.

Type: Passenger vessel. MMSI: 257066700.

Date/timePositionNaut miles runAvg speedWind from/ knotsBaromVisibWave heightAir tempDewpointWater temp
2017-Nov-23 02:00N 62°37' E 006°13'0 0.0
2017-Nov-23 01:30N 62°37' E 006°13'0 0.0
2017-Nov-23 01:00N 62°37' E 006°13'0 0.0
2017-Nov-23 00:30N 62°37' E 006°13'0 0.0
2017-Nov-23 00:00N 62°37' E 006°13'0 0.0
2017-Nov-22 23:30N 62°37' E 006°13'0 0.0
2017-Nov-22 23:00N 62°37' E 006°13'2 3.2
2017-Nov-22 22:30N 62°37' E 006°17'2 3.3
2017-Nov-22 22:00N 62°37' E 006°13'2 3.3
2017-Nov-22 21:30N 62°37' E 006°17'2 3.3
2017-Nov-22 20:59N 62°37' E 006°13'2 3.4
2017-Nov-22 20:30N 62°37' E 006°17'2 3.3
2017-Nov-22 20:00N 62°37' E 006°13'2 3.3
2017-Nov-22 19:30N 62°37' E 006°17'  
2017-Nov-18 15:38N 62°26' E 006°21'0 0.0
2017-Nov-18 15:30N 62°26' E 006°21'3 6.3
2017-Nov-18 15:00N 62°27' E 006°14'3 5.2
2017-Nov-18 14:30N 62°26' E 006°19'1 1.1
2017-Nov-18 14:00N 62°26' E 006°21'0 0.0
2017-Nov-18 13:30N 62°26' E 006°21'0 0.0
2017-Nov-18 13:00N 62°26' E 006°21'0 0.0
2017-Nov-18 12:30N 62°26' E 006°21'0 0.0
2017-Nov-18 12:00N 62°26' E 006°21'0 0.0
2017-Nov-18 11:30N 62°26' E 006°21'0 0.0
2017-Nov-18 11:00N 62°26' E 006°21'0 0.0
2017-Nov-18 10:31N 62°26' E 006°21'0 0.0
2017-Nov-18 09:59N 62°26' E 006°21'0 0.0
2017-Nov-18 09:31N 62°26' E 006°21'0 0.0
2017-Nov-18 09:00N 62°26' E 006°21'0 0.0
2017-Nov-18 08:30N 62°26' E 006°21'0 0.0
2017-Nov-18 08:00N 62°26' E 006°21'0 0.0
2017-Nov-18 07:30N 62°26' E 006°21'0 0.0
2017-Nov-18 07:00N 62°26' E 006°21'0 0.0
2017-Nov-18 06:30N 62°26' E 006°21'0 0.0
2017-Nov-18 06:00N 62°26' E 006°21'0 0.0
2017-Nov-18 05:30N 62°26' E 006°21'0 0.0
2017-Nov-18 05:00N 62°26' E 006°21'0 0.0
2017-Nov-18 04:30N 62°26' E 006°21'0 0.0
2017-Nov-18 04:00N 62°26' E 006°21'0 0.0
2017-Nov-18 03:30N 62°26' E 006°21'0 0.0
2017-Nov-18 03:00N 62°26' E 006°21'0 0.0
2017-Nov-18 02:30N 62°26' E 006°21'0 0.0
2017-Nov-18 02:01N 62°26' E 006°21'0 0.0
2017-Nov-18 01:30N 62°26' E 006°21'0 0.0
2017-Nov-18 01:00N 62°26' E 006°21'0 0.0
2017-Nov-18 00:30N 62°26' E 006°21'0 0.0
2017-Nov-18 00:00N 62°26' E 006°21'0 0.0
2017-Nov-17 23:30N 62°26' E 006°21'0 0.0
2017-Nov-17 23:00N 62°26' E 006°21'0 0.0
2017-Nov-17 22:30N 62°26' E 006°21'0 0.0
2017-Nov-17 22:00N 62°26' E 006°21'0 0.0
2017-Nov-17 21:30N 62°26' E 006°21'0 0.0
2017-Nov-17 21:00N 62°26' E 006°21'0 0.0
2017-Nov-17 20:30N 62°26' E 006°21'0 0.0
2017-Nov-17 20:00N 62°26' E 006°21'0 0.0
2017-Nov-17 19:30N 62°26' E 006°21'0 0.0
2017-Nov-17 19:00N 62°26' E 006°21'0 0.0
2017-Nov-17 18:30N 62°26' E 006°21'0 0.0
2017-Nov-17 18:00N 62°26' E 006°21'0 0.0
2017-Nov-17 17:30N 62°26' E 006°21'0 0.0
2017-Nov-17 17:00N 62°26' E 006°21'  
2017-Nov-14 14:25N 62°26' E 006°21'2 4.2
2017-Nov-14 14:00N 62°27' E 006°17'510.9
2017-Nov-14 13:30N 62°27' E 006°05'5 9.1
2017-Nov-14 13:01N 62°31' E 006°09'510.1
2017-Nov-14 12:30N 62°35' E 006°15'5 9.1
2017-Nov-14 12:00N 62°37' E 006°25'2 3.3
2017-Nov-14 11:30N 62°36' E 006°27'0 0.0
2017-Nov-14 11:00N 62°36' E 006°27'0 0.0
2017-Nov-14 10:30N 62°36' E 006°27'0 0.0
2017-Nov-14 10:00N 62°36' E 006°27'0 0.0
2017-Nov-14 09:30N 62°36' E 006°27'0 0.0
2017-Nov-14 09:01N 62°36' E 006°27'0 0.0
2017-Nov-14 08:30N 62°36' E 006°27'0 0.0
2017-Nov-14 08:01N 62°36' E 006°27'0 0.0
2017-Nov-14 07:30N 62°36' E 006°27'2 3.5
2017-Nov-14 07:01N 62°37' E 006°25'510.3
2017-Nov-14 06:30N 62°37' E 006°13'0 0.0
2017-Nov-14 06:00N 62°37' E 006°13'1 2.7
2017-Nov-14 05:30N 62°36' E 006°16'1 2.5
2017-Nov-14 05:00N 62°37' E 006°14'2 3.2
2017-Nov-14 04:30N 62°37' E 006°17'1 2.6
2017-Nov-14 04:00N 62°38' E 006°17'2 4.0
2017-Nov-14 03:30N 62°37' E 006°13'0 0.0
2017-Nov-14 03:00N 62°37' E 006°13'0 0.0
2017-Nov-14 02:30N 62°37' E 006°13'0 0.0
2017-Nov-14 02:00N 62°37' E 006°13'0 0.0
2017-Nov-14 01:30N 62°37' E 006°13'0 0.0
2017-Nov-14 01:00N 62°37' E 006°13'0 0.0
2017-Nov-14 00:30N 62°37' E 006°13'0 0.0
2017-Nov-14 00:00N 62°37' E 006°13'0 0.0
2017-Nov-13 23:30N 62°37' E 006°13'0 0.0
2017-Nov-13 23:00N 62°37' E 006°13'1 1.5
2017-Nov-13 22:30N 62°37' E 006°15'1 1.5
2017-Nov-13 21:59N 62°37' E 006°13'  

Dump ship's entire track history